FOC weather

Fuzhou Changle International Airport
Fuzhou, Fujian Province, China

Public forecast

Using degrees Celsius for public forecast. Weather courtesy of forecast.io.

Current aviation weather report (METAR) for Fuzhou Changle International Airport

Retrieved 2020/08/04 11:00 UTC (45 minutes ago):

ZSFZ 041100Z 21007MPS 9999 FEW033 28/24 Q1006 NOSIG

Aviation forecast (TAF) for Fuzhou Changle International Airport

Retrieved 2020/08/04 06:00 UTC (6 hours ago):

TAF ZSFZ 040305Z 0406/0506 20008G13MPS 6000 BKN020 TX31/0406Z TN26/0421Z TEMPO 0406/0412 SHRA SCT009 FEW025CB BECMG 0418/0419 20003MPS